sensor_id;sensor_type;location;lat;lon;timestamp;P1;durP1;ratioP1;P2;durP2;ratioP2
291;SDS011;23311;48.776;9.162;2023-05-20T00:01:06;4.47;;;4.10;;
291;SDS011;23311;48.776;9.162;2023-05-20T00:03:34;4.53;;;4.23;;
291;SDS011;23311;48.776;9.162;2023-05-20T00:06:02;4.13;;;3.87;;
291;SDS011;23311;48.776;9.162;2023-05-20T00:08:31;5.43;;;4.83;;
291;SDS011;23311;48.776;9.162;2023-05-20T00:10:59;7.03;;;4.30;;
291;SDS011;23311;48.776;9.162;2023-05-20T00:13:27;4.83;;;4.53;;
291;SDS011;23311;48.776;9.162;2023-05-20T00:15:56;4.90;;;4.33;;
291;SDS011;23311;48.776;9.162;2023-05-20T00:18:24;7.83;;;5.33;;
291;SDS011;23311;48.776;9.162;2023-05-20T00:20:52;5.03;;;4.37;;
291;SDS011;23311;48.776;9.162;2023-05-20T00:23:21;5.80;;;4.63;;
291;SDS011;23311;48.776;9.162;2023-05-20T00:25:49;5.00;;;4.70;;
291;SDS011;23311;48.776;9.162;2023-05-20T00:28:17;5.87;;;4.60;;
291;SDS011;23311;48.776;9.162;2023-05-20T00:30:46;5.50;;;4.80;;
291;SDS011;23311;48.776;9.162;2023-05-20T00:33:15;8.50;;;4.90;;
291;SDS011;23311;48.776;9.162;2023-05-20T00:35:44;6.27;;;5.00;;
291;SDS011;23311;48.776;9.162;2023-05-20T00:38:12;5.57;;;5.10;;
291;SDS011;23311;48.776;9.162;2023-05-20T00:40:40;5.23;;;4.20;;
291;SDS011;23311;48.776;9.162;2023-05-20T00:43:08;7.00;;;5.37;;
291;SDS011;23311;48.776;9.162;2023-05-20T00:45:36;6.20;;;4.53;;
291;SDS011;23311;48.776;9.162;2023-05-20T00:48:05;5.97;;;4.70;;
291;SDS011;23311;48.776;9.162;2023-05-20T00:50:35;5.97;;;4.43;;
291;SDS011;23311;48.776;9.162;2023-05-20T00:53:03;4.83;;;4.50;;
291;SDS011;23311;48.776;9.162;2023-05-20T00:55:32;6.47;;;4.57;;
291;SDS011;23311;48.776;9.162;2023-05-20T00:58:02;6.80;;;5.43;;
291;SDS011;23311;48.776;9.162;2023-05-20T01:00:30;5.10;;;4.80;;
291;SDS011;23311;48.776;9.162;2023-05-20T01:02:58;6.80;;;5.83;;
291;SDS011;23311;48.776;9.162;2023-05-20T01:05:27;5.30;;;5.00;;
291;SDS011;23311;48.776;9.162;2023-05-20T01:07:56;5.23;;;4.57;;
291;SDS011;23311;48.776;9.162;2023-05-20T01:10:24;5.87;;;4.80;;
291;SDS011;23311;48.776;9.162;2023-05-20T01:12:57;8.10;;;4.80;;
291;SDS011;23311;48.776;9.162;2023-05-20T01:15:28;5.80;;;5.50;;
291;SDS011;23311;48.776;9.162;2023-05-20T01:18:00;4.93;;;4.53;;
291;SDS011;23311;48.776;9.162;2023-05-20T01:20:31;4.47;;;4.20;;
291;SDS011;23311;48.776;9.162;2023-05-20T01:23:01;5.50;;;4.60;;
291;SDS011;23311;48.776;9.162;2023-05-20T01:25:30;5.00;;;4.50;;
291;SDS011;23311;48.776;9.162;2023-05-20T01:27:58;6.83;;;4.50;;
291;SDS011;23311;48.776;9.162;2023-05-20T01:30:28;5.10;;;4.17;;
291;SDS011;23311;48.776;9.162;2023-05-20T01:33:04;5.20;;;4.87;;
291;SDS011;23311;48.776;9.162;2023-05-20T01:35:35;5.80;;;5.10;;
291;SDS011;23311;48.776;9.162;2023-05-20T01:38:05;5.90;;;4.77;;
291;SDS011;23311;48.776;9.162;2023-05-20T01:40:34;5.33;;;3.50;;
291;SDS011;23311;48.776;9.162;2023-05-20T01:43:02;6.13;;;4.40;;
291;SDS011;23311;48.776;9.162;2023-05-20T01:45:31;5.50;;;4.60;;
291;SDS011;23311;48.776;9.162;2023-05-20T01:48:01;5.20;;;4.90;;
291;SDS011;23311;48.776;9.162;2023-05-20T01:50:29;5.37;;;5.03;;
291;SDS011;23311;48.776;9.162;2023-05-20T01:52:57;6.73;;;4.73;;
291;SDS011;23311;48.776;9.162;2023-05-20T01:55:26;5.00;;;4.57;;
291;SDS011;23311;48.776;9.162;2023-05-20T01:57:54;6.20;;;4.50;;
291;SDS011;23311;48.776;9.162;2023-05-20T02:00:22;6.67;;;4.70;;
291;SDS011;23311;48.776;9.162;2023-05-20T02:02:51;5.47;;;5.03;;
291;SDS011;23311;48.776;9.162;2023-05-20T02:05:19;5.00;;;4.70;;
291;SDS011;23311;48.776;9.162;2023-05-20T02:07:47;6.27;;;4.80;;
291;SDS011;23311;48.776;9.162;2023-05-20T02:10:15;5.37;;;4.60;;
291;SDS011;23311;48.776;9.162;2023-05-20T02:12:44;4.70;;;4.40;;
291;SDS011;23311;48.776;9.162;2023-05-20T02:15:14;5.50;;;5.20;;
291;SDS011;23311;48.776;9.162;2023-05-20T02:17:42;5.07;;;4.83;;
291;SDS011;23311;48.776;9.162;2023-05-20T02:20:11;5.83;;;5.23;;
291;SDS011;23311;48.776;9.162;2023-05-20T02:22:39;6.77;;;5.50;;
291;SDS011;23311;48.776;9.162;2023-05-20T02:25:07;5.47;;;4.90;;
291;SDS011;23311;48.776;9.162;2023-05-20T02:27:36;5.30;;;5.00;;
291;SDS011;23311;48.776;9.162;2023-05-20T02:30:07;6.43;;;5.17;;
291;SDS011;23311;48.776;9.162;2023-05-20T02:32:36;6.07;;;5.53;;
291;SDS011;23311;48.776;9.162;2023-05-20T02:35:04;7.07;;;5.33;;
291;SDS011;23311;48.776;9.162;2023-05-20T02:37:33;5.77;;;5.33;;
291;SDS011;23311;48.776;9.162;2023-05-20T02:40:01;6.10;;;4.87;;
291;SDS011;23311;48.776;9.162;2023-05-20T02:42:30;5.20;;;4.90;;
291;SDS011;23311;48.776;9.162;2023-05-20T02:44:58;6.17;;;4.97;;
291;SDS011;23311;48.776;9.162;2023-05-20T02:47:27;7.00;;;5.53;;
291;SDS011;23311;48.776;9.162;2023-05-20T02:49:55;5.77;;;4.60;;
291;SDS011;23311;48.776;9.162;2023-05-20T02:52:24;7.07;;;5.87;;
291;SDS011;23311;48.776;9.162;2023-05-20T02:54:52;7.37;;;5.83;;
291;SDS011;23311;48.776;9.162;2023-05-20T02:57:20;5.37;;;5.07;;
291;SDS011;23311;48.776;9.162;2023-05-20T02:59:48;5.97;;;5.07;;
291;SDS011;23311;48.776;9.162;2023-05-20T03:02:16;6.33;;;5.27;;
291;SDS011;23311;48.776;9.162;2023-05-20T03:04:45;6.50;;;5.23;;
291;SDS011;23311;48.776;9.162;2023-05-20T03:07:13;5.40;;;5.17;;
291;SDS011;23311;48.776;9.162;2023-05-20T03:09:44;6.77;;;5.83;;
291;SDS011;23311;48.776;9.162;2023-05-20T03:12:12;5.50;;;5.20;;
291;SDS011;23311;48.776;9.162;2023-05-20T03:14:40;5.93;;;5.63;;
291;SDS011;23311;48.776;9.162;2023-05-20T03:17:08;6.70;;;6.30;;
291;SDS011;23311;48.776;9.162;2023-05-20T03:19:37;6.00;;;5.70;;
291;SDS011;23311;48.776;9.162;2023-05-20T03:22:07;6.53;;;5.30;;
291;SDS011;23311;48.776;9.162;2023-05-20T03:24:35;5.90;;;5.07;;
291;SDS011;23311;48.776;9.162;2023-05-20T03:27:03;6.00;;;5.27;;
291;SDS011;23311;48.776;9.162;2023-05-20T03:29:32;5.67;;;5.27;;
291;SDS011;23311;48.776;9.162;2023-05-20T03:32:00;5.80;;;5.50;;
291;SDS011;23311;48.776;9.162;2023-05-20T03:34:28;5.63;;;5.00;;
291;SDS011;23311;48.776;9.162;2023-05-20T03:36:56;5.13;;;4.83;;
291;SDS011;23311;48.776;9.162;2023-05-20T03:39:26;5.80;;;5.50;;
291;SDS011;23311;48.776;9.162;2023-05-20T03:41:55;5.90;;;5.30;;
291;SDS011;23311;48.776;9.162;2023-05-20T03:44:23;7.37;;;6.17;;
291;SDS011;23311;48.776;9.162;2023-05-20T03:46:51;5.80;;;5.50;;
291;SDS011;23311;48.776;9.162;2023-05-20T03:49:19;6.90;;;6.50;;
291;SDS011;23311;48.776;9.162;2023-05-20T03:51:47;6.67;;;6.30;;
291;SDS011;23311;48.776;9.162;2023-05-20T03:54:15;6.40;;;6.00;;
291;SDS011;23311;48.776;9.162;2023-05-20T03:56:44;6.60;;;6.00;;
291;SDS011;23311;48.776;9.162;2023-05-20T03:59:14;6.00;;;5.70;;
291;SDS011;23311;48.776;9.162;2023-05-20T04:01:43;5.70;;;5.40;;
291;SDS011;23311;48.776;9.162;2023-05-20T04:04:11;6.37;;;6.00;;
291;SDS011;23311;48.776;9.162;2023-05-20T04:06:39;6.23;;;5.50;;
291;SDS011;23311;48.776;9.162;2023-05-20T04:09:08;5.10;;;4.80;;
291;SDS011;23311;48.776;9.162;2023-05-20T04:11:37;5.67;;;5.37;;
291;SDS011;23311;48.776;9.162;2023-05-20T04:14:07;5.43;;;5.17;;
291;SDS011;23311;48.776;9.162;2023-05-20T04:16:36;5.13;;;4.83;;
291;SDS011;23311;48.776;9.162;2023-05-20T04:19:04;6.00;;;5.30;;
291;SDS011;23311;48.776;9.162;2023-05-20T04:21:32;7.23;;;4.77;;
291;SDS011;23311;48.776;9.162;2023-05-20T04:24:01;5.50;;;4.60;;
291;SDS011;23311;48.776;9.162;2023-05-20T04:26:29;5.70;;;5.00;;
291;SDS011;23311;48.776;9.162;2023-05-20T04:28:57;4.87;;;4.57;;
291;SDS011;23311;48.776;9.162;2023-05-20T04:31:28;5.90;;;5.27;;
291;SDS011;23311;48.776;9.162;2023-05-20T04:33:57;5.17;;;4.90;;
291;SDS011;23311;48.776;9.162;2023-05-20T04:36:25;5.00;;;4.80;;
291;SDS011;23311;48.776;9.162;2023-05-20T04:38:54;6.63;;;4.60;;
291;SDS011;23311;48.776;9.162;2023-05-20T04:41:22;5.73;;;5.43;;
291;SDS011;23311;48.776;9.162;2023-05-20T04:43:50;5.90;;;5.13;;
291;SDS011;23311;48.776;9.162;2023-05-20T04:46:19;5.87;;;5.30;;
291;SDS011;23311;48.776;9.162;2023-05-20T04:48:48;5.30;;;4.87;;
291;SDS011;23311;48.776;9.162;2023-05-20T04:51:16;5.93;;;5.63;;
291;SDS011;23311;48.776;9.162;2023-05-20T04:53:44;5.87;;;5.40;;
291;SDS011;23311;48.776;9.162;2023-05-20T04:56:12;6.40;;;4.83;;
291;SDS011;23311;48.776;9.162;2023-05-20T04:58:41;5.60;;;5.30;;
291;SDS011;23311;48.776;9.162;2023-05-20T05:01:09;6.70;;;5.17;;
291;SDS011;23311;48.776;9.162;2023-05-20T05:03:37;6.10;;;5.20;;
291;SDS011;23311;48.776;9.162;2023-05-20T05:06:06;5.13;;;4.73;;
291;SDS011;23311;48.776;9.162;2023-05-20T05:08:34;5.80;;;5.50;;
291;SDS011;23311;48.776;9.162;2023-05-20T05:11:03;7.33;;;5.63;;
291;SDS011;23311;48.776;9.162;2023-05-20T05:13:32;7.37;;;5.37;;
291;SDS011;23311;48.776;9.162;2023-05-20T05:16:00;5.63;;;5.40;;
291;SDS011;23311;48.776;9.162;2023-05-20T05:18:28;6.83;;;4.83;;
291;SDS011;23311;48.776;9.162;2023-05-20T05:21:00;6.07;;;5.10;;
291;SDS011;23311;48.776;9.162;2023-05-20T05:23:29;4.97;;;4.67;;
291;SDS011;23311;48.776;9.162;2023-05-20T05:25:58;8.00;;;5.57;;
291;SDS011;23311;48.776;9.162;2023-05-20T05:28:26;4.60;;;4.30;;
291;SDS011;23311;48.776;9.162;2023-05-20T05:30:54;5.60;;;5.30;;
291;SDS011;23311;48.776;9.162;2023-05-20T05:33:23;7.50;;;5.37;;
291;SDS011;23311;48.776;9.162;2023-05-20T05:35:51;5.30;;;5.07;;
291;SDS011;23311;48.776;9.162;2023-05-20T05:38:19;5.93;;;5.13;;
291;SDS011;23311;48.776;9.162;2023-05-20T05:40:48;5.37;;;5.10;;
291;SDS011;23311;48.776;9.162;2023-05-20T05:43:16;5.40;;;5.10;;
291;SDS011;23311;48.776;9.162;2023-05-20T05:45:44;5.50;;;5.20;;
291;SDS011;23311;48.776;9.162;2023-05-20T05:48:12;5.87;;;4.77;;
291;SDS011;23311;48.776;9.162;2023-05-20T05:50:42;5.80;;;4.97;;
291;SDS011;23311;48.776;9.162;2023-05-20T05:53:12;6.07;;;4.40;;
291;SDS011;23311;48.776;9.162;2023-05-20T05:55:40;4.77;;;4.47;;
291;SDS011;23311;48.776;9.162;2023-05-20T05:58:09;6.10;;;5.40;;
291;SDS011;23311;48.776;9.162;2023-05-20T06:00:37;5.10;;;4.80;;
291;SDS011;23311;48.776;9.162;2023-05-20T06:03:05;4.77;;;4.37;;
291;SDS011;23311;48.776;9.162;2023-05-20T06:05:34;4.10;;;3.90;;
291;SDS011;23311;48.776;9.162;2023-05-20T06:08:02;5.20;;;4.70;;
291;SDS011;23311;48.776;9.162;2023-05-20T06:10:31;5.93;;;5.20;;
291;SDS011;23311;48.776;9.162;2023-05-20T06:12:59;7.23;;;5.30;;
291;SDS011;23311;48.776;9.162;2023-05-20T06:15:28;4.40;;;4.10;;
291;SDS011;23311;48.776;9.162;2023-05-20T06:17:56;5.50;;;5.20;;
291;SDS011;23311;48.776;9.162;2023-05-20T06:20:24;4.80;;;4.30;;
291;SDS011;23311;48.776;9.162;2023-05-20T06:22:52;4.93;;;4.63;;
291;SDS011;23311;48.776;9.162;2023-05-20T06:25:20;5.33;;;4.67;;
291;SDS011;23311;48.776;9.162;2023-05-20T06:27:49;5.37;;;4.57;;
291;SDS011;23311;48.776;9.162;2023-05-20T06:30:17;4.00;;;3.80;;
291;SDS011;23311;48.776;9.162;2023-05-20T06:32:46;4.90;;;4.70;;
291;SDS011;23311;48.776;9.162;2023-05-20T06:35:15;5.37;;;5.07;;
291;SDS011;23311;48.776;9.162;2023-05-20T06:37:43;5.47;;;5.17;;
291;SDS011;23311;48.776;9.162;2023-05-20T06:40:11;5.20;;;4.50;;
291;SDS011;23311;48.776;9.162;2023-05-20T06:42:39;5.50;;;5.20;;
291;SDS011;23311;48.776;9.162;2023-05-20T06:45:08;5.47;;;5.17;;
291;SDS011;23311;48.776;9.162;2023-05-20T06:47:36;5.03;;;4.53;;
291;SDS011;23311;48.776;9.162;2023-05-20T06:50:06;4.87;;;4.57;;
291;SDS011;23311;48.776;9.162;2023-05-20T06:52:35;6.90;;;6.23;;
291;SDS011;23311;48.776;9.162;2023-05-20T06:55:03;5.20;;;4.90;;
291;SDS011;23311;48.776;9.162;2023-05-20T06:57:32;4.97;;;4.67;;
291;SDS011;23311;48.776;9.162;2023-05-20T07:00:00;5.43;;;5.10;;
291;SDS011;23311;48.776;9.162;2023-05-20T07:02:29;6.63;;;4.60;;
291;SDS011;23311;48.776;9.162;2023-05-20T07:04:57;5.53;;;5.23;;
291;SDS011;23311;48.776;9.162;2023-05-20T07:07:26;5.83;;;5.07;;
291;SDS011;23311;48.776;9.162;2023-05-20T07:09:54;5.47;;;5.17;;
291;SDS011;23311;48.776;9.162;2023-05-20T07:12:23;5.37;;;5.07;;
291;SDS011;23311;48.776;9.162;2023-05-20T07:14:51;5.77;;;5.33;;
291;SDS011;23311;48.776;9.162;2023-05-20T07:17:19;5.13;;;4.83;;
291;SDS011;23311;48.776;9.162;2023-05-20T07:19:48;5.70;;;5.40;;
291;SDS011;23311;48.776;9.162;2023-05-20T07:22:16;5.77;;;5.47;;
291;SDS011;23311;48.776;9.162;2023-05-20T07:24:45;6.03;;;5.77;;
291;SDS011;23311;48.776;9.162;2023-05-20T07:27:13;6.20;;;5.50;;
291;SDS011;23311;48.776;9.162;2023-05-20T07:29:41;5.37;;;5.00;;
291;SDS011;23311;48.776;9.162;2023-05-20T07:32:09;5.27;;;4.97;;
291;SDS011;23311;48.776;9.162;2023-05-20T07:34:38;6.37;;;6.00;;
291;SDS011;23311;48.776;9.162;2023-05-20T07:37:06;5.00;;;4.70;;
291;SDS011;23311;48.776;9.162;2023-05-20T07:39:35;6.80;;;4.73;;
291;SDS011;23311;48.776;9.162;2023-05-20T07:42:04;4.93;;;4.57;;
291;SDS011;23311;48.776;9.162;2023-05-20T07:44:33;6.03;;;5.07;;
291;SDS011;23311;48.776;9.162;2023-05-20T07:47:01;5.50;;;5.20;;
291;SDS011;23311;48.776;9.162;2023-05-20T07:49:29;4.50;;;4.20;;
291;SDS011;23311;48.776;9.162;2023-05-20T07:51:57;5.30;;;5.00;;
291;SDS011;23311;48.776;9.162;2023-05-20T07:54:28;4.83;;;4.53;;
291;SDS011;23311;48.776;9.162;2023-05-20T07:56:56;5.90;;;5.60;;
291;SDS011;23311;48.776;9.162;2023-05-20T07:59:27;4.80;;;4.53;;
291;SDS011;23311;48.776;9.162;2023-05-20T08:01:55;4.67;;;4.40;;
291;SDS011;23311;48.776;9.162;2023-05-20T08:04:23;10.23;;;5.67;;
291;SDS011;23311;48.776;9.162;2023-05-20T08:06:52;5.97;;;5.73;;
291;SDS011;23311;48.776;9.162;2023-05-20T08:09:20;6.47;;;5.50;;
291;SDS011;23311;48.776;9.162;2023-05-20T08:11:48;5.60;;;4.87;;
291;SDS011;23311;48.776;9.162;2023-05-20T08:14:16;5.20;;;4.90;;
291;SDS011;23311;48.776;9.162;2023-05-20T08:16:46;4.87;;;4.30;;
291;SDS011;23311;48.776;9.162;2023-05-20T08:19:14;5.97;;;5.30;;
291;SDS011;23311;48.776;9.162;2023-05-20T08:21:42;5.50;;;5.20;;
291;SDS011;23311;48.776;9.162;2023-05-20T08:24:12;6.80;;;5.70;;
291;SDS011;23311;48.776;9.162;2023-05-20T08:26:43;5.50;;;4.70;;
291;SDS011;23311;48.776;9.162;2023-05-20T08:29:13;6.10;;;5.80;;
291;SDS011;23311;48.776;9.162;2023-05-20T08:31:42;6.03;;;5.73;;
291;SDS011;23311;48.776;9.162;2023-05-20T08:34:21;5.20;;;4.90;;
291;SDS011;23311;48.776;9.162;2023-05-20T08:36:51;5.83;;;4.70;;
291;SDS011;23311;48.776;9.162;2023-05-20T08:39:19;5.30;;;5.00;;
291;SDS011;23311;48.776;9.162;2023-05-20T08:41:47;6.00;;;4.80;;
291;SDS011;23311;48.776;9.162;2023-05-20T08:44:16;6.13;;;4.53;;
291;SDS011;23311;48.776;9.162;2023-05-20T08:46:45;4.83;;;4.53;;
291;SDS011;23311;48.776;9.162;2023-05-20T08:49:15;5.63;;;5.23;;
291;SDS011;23311;48.776;9.162;2023-05-20T08:51:48;6.40;;;5.83;;
291;SDS011;23311;48.776;9.162;2023-05-20T08:54:17;5.63;;;5.33;;
291;SDS011;23311;48.776;9.162;2023-05-20T08:56:49;4.90;;;4.60;;
291;SDS011;23311;48.776;9.162;2023-05-20T08:59:19;5.83;;;5.03;;
291;SDS011;23311;48.776;9.162;2023-05-20T09:01:48;6.40;;;5.57;;
291;SDS011;23311;48.776;9.162;2023-05-20T09:04:16;5.67;;;5.00;;
291;SDS011;23311;48.776;9.162;2023-05-20T09:06:45;7.87;;;5.27;;
291;SDS011;23311;48.776;9.162;2023-05-20T09:09:15;5.30;;;5.00;;
291;SDS011;23311;48.776;9.162;2023-05-20T09:11:43;6.20;;;5.57;;
291;SDS011;23311;48.776;9.162;2023-05-20T09:14:11;5.87;;;5.57;;
291;SDS011;23311;48.776;9.162;2023-05-20T09:16:39;5.57;;;5.27;;
291;SDS011;23311;48.776;9.162;2023-05-20T09:19:07;5.17;;;4.87;;
291;SDS011;23311;48.776;9.162;2023-05-20T09:21:36;5.33;;;5.03;;
291;SDS011;23311;48.776;9.162;2023-05-20T09:24:07;5.33;;;5.03;;
291;SDS011;23311;48.776;9.162;2023-05-20T09:26:36;6.20;;;5.90;;
291;SDS011;23311;48.776;9.162;2023-05-20T09:29:05;5.90;;;5.60;;
291;SDS011;23311;48.776;9.162;2023-05-20T09:31:34;5.70;;;5.40;;
291;SDS011;23311;48.776;9.162;2023-05-20T09:34:04;6.10;;;5.13;;
291;SDS011;23311;48.776;9.162;2023-05-20T09:36:33;6.00;;;5.50;;
291;SDS011;23311;48.776;9.162;2023-05-20T09:39:05;6.07;;;5.77;;
291;SDS011;23311;48.776;9.162;2023-05-20T09:41:38;5.13;;;4.83;;
291;SDS011;23311;48.776;9.162;2023-05-20T09:44:21;5.10;;;4.80;;
291;SDS011;23311;48.776;9.162;2023-05-20T09:46:49;6.33;;;5.90;;
291;SDS011;23311;48.776;9.162;2023-05-20T09:49:18;5.60;;;4.73;;
291;SDS011;23311;48.776;9.162;2023-05-20T09:51:48;5.90;;;4.97;;
291;SDS011;23311;48.776;9.162;2023-05-20T09:54:18;5.67;;;5.37;;
291;SDS011;23311;48.776;9.162;2023-05-20T09:56:48;5.70;;;5.40;;
291;SDS011;23311;48.776;9.162;2023-05-20T09:59:17;5.53;;;5.23;;
291;SDS011;23311;48.776;9.162;2023-05-20T10:01:51;10.53;;;6.00;;
291;SDS011;23311;48.776;9.162;2023-05-20T10:04:20;4.87;;;4.57;;
291;SDS011;23311;48.776;9.162;2023-05-20T10:06:55;6.07;;;5.57;;
291;SDS011;23311;48.776;9.162;2023-05-20T10:10:02;6.20;;;5.83;;
291;SDS011;23311;48.776;9.162;2023-05-20T10:12:42;5.77;;;5.47;;
291;SDS011;23311;48.776;9.162;2023-05-20T10:15:21;5.90;;;5.60;;
291;SDS011;23311;48.776;9.162;2023-05-20T10:17:55;6.40;;;5.40;;
291;SDS011;23311;48.776;9.162;2023-05-20T10:20:43;5.57;;;5.27;;
291;SDS011;23311;48.776;9.162;2023-05-20T10:23:19;5.50;;;5.20;;
291;SDS011;23311;48.776;9.162;2023-05-20T10:25:49;5.20;;;4.90;;
291;SDS011;23311;48.776;9.162;2023-05-20T10:28:28;5.07;;;4.77;;
291;SDS011;23311;48.776;9.162;2023-05-20T10:30:58;5.50;;;5.20;;
291;SDS011;23311;48.776;9.162;2023-05-20T10:33:27;6.50;;;6.10;;
291;SDS011;23311;48.776;9.162;2023-05-20T10:35:56;6.47;;;6.07;;
291;SDS011;23311;48.776;9.162;2023-05-20T10:38:25;5.33;;;5.03;;
291;SDS011;23311;48.776;9.162;2023-05-20T10:40:53;5.50;;;5.20;;
291;SDS011;23311;48.776;9.162;2023-05-20T10:43:25;6.23;;;5.63;;
291;SDS011;23311;48.776;9.162;2023-05-20T10:45:55;5.13;;;4.83;;
291;SDS011;23311;48.776;9.162;2023-05-20T10:48:26;7.10;;;4.83;;
291;SDS011;23311;48.776;9.162;2023-05-20T10:50:57;5.10;;;4.80;;
291;SDS011;23311;48.776;9.162;2023-05-20T10:53:37;5.50;;;5.20;;
291;SDS011;23311;48.776;9.162;2023-05-20T10:56:15;6.27;;;5.10;;
291;SDS011;23311;48.776;9.162;2023-05-20T10:58:43;5.70;;;5.23;;
291;SDS011;23311;48.776;9.162;2023-05-20T11:01:13;6.23;;;5.20;;
291;SDS011;23311;48.776;9.162;2023-05-20T11:03:42;4.80;;;4.53;;
291;SDS011;23311;48.776;9.162;2023-05-20T11:06:12;5.50;;;5.20;;
291;SDS011;23311;48.776;9.162;2023-05-20T11:08:43;4.60;;;4.30;;
291;SDS011;23311;48.776;9.162;2023-05-20T11:11:13;4.87;;;4.57;;
291;SDS011;23311;48.776;9.162;2023-05-20T11:13:42;5.13;;;4.83;;
291;SDS011;23311;48.776;9.162;2023-05-20T11:16:10;4.87;;;4.57;;
291;SDS011;23311;48.776;9.162;2023-05-20T11:18:39;4.90;;;4.60;;
291;SDS011;23311;48.776;9.162;2023-05-20T11:21:08;5.03;;;4.53;;
291;SDS011;23311;48.776;9.162;2023-05-20T11:23:36;4.90;;;4.60;;
291;SDS011;23311;48.776;9.162;2023-05-20T11:26:06;5.47;;;5.17;;
291;SDS011;23311;48.776;9.162;2023-05-20T11:28:34;6.07;;;5.00;;
291;SDS011;23311;48.776;9.162;2023-05-20T11:31:02;4.83;;;4.43;;
291;SDS011;23311;48.776;9.162;2023-05-20T11:33:31;4.83;;;4.53;;
291;SDS011;23311;48.776;9.162;2023-05-20T11:36:01;4.17;;;3.93;;
291;SDS011;23311;48.776;9.162;2023-05-20T11:38:36;4.90;;;4.60;;
291;SDS011;23311;48.776;9.162;2023-05-20T11:41:04;4.97;;;4.67;;
291;SDS011;23311;48.776;9.162;2023-05-20T11:43:32;4.93;;;4.63;;
291;SDS011;23311;48.776;9.162;2023-05-20T11:46:00;5.53;;;4.73;;
291;SDS011;23311;48.776;9.162;2023-05-20T11:48:31;4.63;;;4.33;;
291;SDS011;23311;48.776;9.162;2023-05-20T11:51:01;5.10;;;4.53;;
291;SDS011;23311;48.776;9.162;2023-05-20T11:53:29;6.43;;;4.90;;
291;SDS011;23311;48.776;9.162;2023-05-20T11:55:58;4.80;;;4.50;;
291;SDS011;23311;48.776;9.162;2023-05-20T11:58:28;6.17;;;5.40;;
291;SDS011;23311;48.776;9.162;2023-05-20T12:00:57;5.00;;;4.70;;
291;SDS011;23311;48.776;9.162;2023-05-20T12:03:45;4.87;;;4.53;;
291;SDS011;23311;48.776;9.162;2023-05-20T12:06:15;5.53;;;4.13;;
291;SDS011;23311;48.776;9.162;2023-05-20T12:08:44;5.43;;;5.13;;
291;SDS011;23311;48.776;9.162;2023-05-20T12:11:12;5.80;;;4.53;;
291;SDS011;23311;48.776;9.162;2023-05-20T12:13:40;4.63;;;4.33;;
291;SDS011;23311;48.776;9.162;2023-05-20T12:16:09;5.40;;;4.50;;
291;SDS011;23311;48.776;9.162;2023-05-20T12:18:37;5.30;;;5.00;;
291;SDS011;23311;48.776;9.162;2023-05-20T12:21:05;5.43;;;5.13;;
291;SDS011;23311;48.776;9.162;2023-05-20T12:23:35;5.90;;;4.70;;
291;SDS011;23311;48.776;9.162;2023-05-20T12:26:03;4.90;;;4.60;;
291;SDS011;23311;48.776;9.162;2023-05-20T12:28:31;4.70;;;4.43;;
291;SDS011;23311;48.776;9.162;2023-05-20T12:30:59;5.27;;;4.97;;
291;SDS011;23311;48.776;9.162;2023-05-20T12:33:27;4.67;;;4.37;;
291;SDS011;23311;48.776;9.162;2023-05-20T12:35:58;5.10;;;4.13;;
291;SDS011;23311;48.776;9.162;2023-05-20T12:38:26;4.80;;;4.50;;
291;SDS011;23311;48.776;9.162;2023-05-20T12:40:56;4.70;;;4.00;;
291;SDS011;23311;48.776;9.162;2023-05-20T12:43:24;4.97;;;4.40;;
291;SDS011;23311;48.776;9.162;2023-05-20T12:45:52;4.80;;;4.50;;
291;SDS011;23311;48.776;9.162;2023-05-20T12:48:21;5.17;;;4.87;;
291;SDS011;23311;48.776;9.162;2023-05-20T12:50:49;4.40;;;4.13;;
291;SDS011;23311;48.776;9.162;2023-05-20T12:53:17;4.87;;;4.57;;
291;SDS011;23311;48.776;9.162;2023-05-20T12:55:45;4.87;;;4.40;;
291;SDS011;23311;48.776;9.162;2023-05-20T12:58:15;5.03;;;4.73;;
291;SDS011;23311;48.776;9.162;2023-05-20T13:00:43;4.50;;;4.20;;
291;SDS011;23311;48.776;9.162;2023-05-20T13:03:11;7.70;;;4.63;;
291;SDS011;23311;48.776;9.162;2023-05-20T13:05:39;4.67;;;4.00;;
291;SDS011;23311;48.776;9.162;2023-05-20T13:08:07;5.00;;;4.70;;
291;SDS011;23311;48.776;9.162;2023-05-20T13:10:37;4.80;;;4.50;;
291;SDS011;23311;48.776;9.162;2023-05-20T13:13:06;4.70;;;4.40;;
291;SDS011;23311;48.776;9.162;2023-05-20T13:15:35;4.70;;;4.40;;
291;SDS011;23311;48.776;9.162;2023-05-20T13:18:03;4.70;;;4.20;;
291;SDS011;23311;48.776;9.162;2023-05-20T13:20:32;4.47;;;4.20;;
291;SDS011;23311;48.776;9.162;2023-05-20T13:23:01;4.40;;;4.10;;
291;SDS011;23311;48.776;9.162;2023-05-20T13:25:29;4.93;;;4.63;;
291;SDS011;23311;48.776;9.162;2023-05-20T13:27:57;4.23;;;3.97;;
291;SDS011;23311;48.776;9.162;2023-05-20T13:30:25;4.00;;;3.80;;
291;SDS011;23311;48.776;9.162;2023-05-20T13:32:55;4.00;;;3.80;;
291;SDS011;23311;48.776;9.162;2023-05-20T13:35:23;3.80;;;3.60;;
291;SDS011;23311;48.776;9.162;2023-05-20T13:37:52;3.90;;;3.70;;
291;SDS011;23311;48.776;9.162;2023-05-20T13:40:20;4.57;;;4.23;;
291;SDS011;23311;48.776;9.162;2023-05-20T13:42:48;5.23;;;3.70;;
291;SDS011;23311;48.776;9.162;2023-05-20T13:45:16;4.43;;;3.23;;
291;SDS011;23311;48.776;9.162;2023-05-20T13:47:45;4.70;;;3.17;;
291;SDS011;23311;48.776;9.162;2023-05-20T13:50:15;4.37;;;3.33;;
291;SDS011;23311;48.776;9.162;2023-05-20T13:52:43;3.57;;;3.37;;
291;SDS011;23311;48.776;9.162;2023-05-20T13:55:11;3.90;;;3.70;;
291;SDS011;23311;48.776;9.162;2023-05-20T13:57:39;4.67;;;3.67;;
291;SDS011;23311;48.776;9.162;2023-05-20T14:00:08;4.23;;;3.97;;
291;SDS011;23311;48.776;9.162;2023-05-20T14:02:37;4.03;;;3.50;;
291;SDS011;23311;48.776;9.162;2023-05-20T14:05:05;4.10;;;3.90;;
291;SDS011;23311;48.776;9.162;2023-05-20T14:07:35;4.77;;;3.90;;
291;SDS011;23311;48.776;9.162;2023-05-20T14:10:05;3.90;;;3.70;;
291;SDS011;23311;48.776;9.162;2023-05-20T14:12:34;4.00;;;3.80;;
291;SDS011;23311;48.776;9.162;2023-05-20T14:15:02;3.77;;;3.60;;
291;SDS011;23311;48.776;9.162;2023-05-20T14:17:31;4.07;;;3.70;;
291;SDS011;23311;48.776;9.162;2023-05-20T14:19:59;3.60;;;3.40;;
291;SDS011;23311;48.776;9.162;2023-05-20T14:22:27;4.17;;;3.77;;
291;SDS011;23311;48.776;9.162;2023-05-20T14:24:56;4.57;;;4.27;;
291;SDS011;23311;48.776;9.162;2023-05-20T14:27:24;3.93;;;3.73;;
291;SDS011;23311;48.776;9.162;2023-05-20T14:29:53;4.30;;;3.20;;
291;SDS011;23311;48.776;9.162;2023-05-20T14:32:21;4.43;;;4.13;;
291;SDS011;23311;48.776;9.162;2023-05-20T14:34:49;5.10;;;4.23;;
291;SDS011;23311;48.776;9.162;2023-05-20T14:37:21;4.60;;;3.90;;
291;SDS011;23311;48.776;9.162;2023-05-20T14:40:04;3.87;;;3.67;;
291;SDS011;23311;48.776;9.162;2023-05-20T14:42:33;4.70;;;4.33;;
291;SDS011;23311;48.776;9.162;2023-05-20T14:45:02;3.70;;;3.40;;
291;SDS011;23311;48.776;9.162;2023-05-20T14:47:30;5.63;;;4.20;;
291;SDS011;23311;48.776;9.162;2023-05-20T14:49:58;4.30;;;3.33;;
291;SDS011;23311;48.776;9.162;2023-05-20T14:52:27;7.20;;;3.63;;
291;SDS011;23311;48.776;9.162;2023-05-20T14:54:55;3.50;;;3.30;;
291;SDS011;23311;48.776;9.162;2023-05-20T14:57:25;3.77;;;3.50;;
291;SDS011;23311;48.776;9.162;2023-05-20T14:59:53;4.30;;;4.00;;
291;SDS011;23311;48.776;9.162;2023-05-20T15:02:21;3.20;;;3.10;;
291;SDS011;23311;48.776;9.162;2023-05-20T15:04:49;4.60;;;4.30;;
291;SDS011;23311;48.776;9.162;2023-05-20T15:07:17;3.67;;;3.47;;
291;SDS011;23311;48.776;9.162;2023-05-20T15:09:45;4.63;;;3.53;;
291;SDS011;23311;48.776;9.162;2023-05-20T15:12:15;4.50;;;4.20;;
291;SDS011;23311;48.776;9.162;2023-05-20T15:14:44;4.50;;;4.20;;
291;SDS011;23311;48.776;9.162;2023-05-20T15:17:12;6.50;;;3.70;;
291;SDS011;23311;48.776;9.162;2023-05-20T15:19:40;3.75;;;3.55;;
291;SDS011;23311;48.776;9.162;2023-05-20T15:22:08;4.73;;;3.67;;
291;SDS011;23311;48.776;9.162;2023-05-20T15:24:36;4.47;;;3.87;;
291;SDS011;23311;48.776;9.162;2023-05-20T15:27:05;4.07;;;3.83;;